Terminal Aerodrome Forecast
Issued by NWS Oklahoma City, OK

Home | Current Version | Previous Version | Text Only | Print | Product List | Glossary On
Versions: 1 2 3 4 5 6 7 8 9 10 11 12 13 14 15 16 17 18 19 20 21 22 23 24 25 26 27 28
000
FTUS44 KOUN 231120
TAFOUN
TAF
KOUN 231120Z 2312/2412 VRB05KT P6SM FEW250
      TEMPO 2312/2313 4SM BR
     FM232100 02008KT P6SM SCT050 SCT250
     FM240200 09005KT P6SM FEW050 SCT250=

USA.gov is the U.S. government's official web portal to all federal, state and local government web resources and services.